Time;durP1;ratioP1;P1;durP2;ratioP2;P2;SDS_P1;SDS_P2;PMS_P1;PMS_P2;Temp;Humidity;BMP_temperature;BMP_pressure;BME280_temperature;BME280_humidity;BME280_pressure;Samples;Min_cycle;Max_cycle;Signal;HPM_P1;HPM_P2
2021/05/07 00:01:19;;;;;;;11.03;4.40;;;5.10;75.30;;;;;;5010404;28;20061;-64
2021/05/07 00:03:45;;;;;;;11.87;4.67;;;5.20;75.20;;;;;;5009265;28;20057;-64
2021/05/07 00:06:11;;;;;;;11.70;4.47;;;5.20;75.30;;;;;;5011506;28;20104;-64
2021/05/07 00:08:42;;;;;;;12.77;4.97;;;5.20;75.30;;;;;;5010219;28;20034;-63
2021/05/07 00:11:10;;;;;;;9.57;4.40;;;5.20;75.30;;;;;;5009997;28;20534;-64
2021/05/07 00:13:37;;;;;;;15.33;4.53;;;5.20;75.30;;;;;;5009567;28;20046;-64
2021/05/07 00:16:03;;;;;;;10.30;4.33;;;5.20;75.40;;;;;;5010843;28;20040;-64
2021/05/07 00:18:30;;;;;;;11.97;5.07;;;5.20;75.60;;;;;;5011661;28;20037;-64
2021/05/07 00:20:55;;;;;;;10.63;4.47;;;5.20;75.70;;;;;;5011258;28;20133;-64
2021/05/07 00:23:21;;;;;;;10.07;4.83;;;5.20;75.90;;;;;;5010283;28;20125;-64
2021/05/07 00:25:49;;;;;;;11.70;4.53;;;5.20;76.00;;;;;;5011533;28;20113;-64
2021/05/07 00:28:17;;;;;;;13.53;4.70;;;5.30;76.20;;;;;;5010799;28;20054;-64
2021/05/07 00:30:42;;;;;;;9.83;4.37;;;5.30;76.30;;;;;;5009952;28;20413;-64
2021/05/07 00:33:09;;;;;;;9.80;4.20;;;5.30;76.30;;;;;;5009302;28;20128;-64
2021/05/07 00:35:35;;;;;;;13.00;4.90;;;5.40;76.50;;;;;;5009644;28;20388;-64
2021/05/07 00:38:01;;;;;;;11.60;4.77;;;5.40;76.60;;;;;;5009806;28;20038;-64
2021/05/07 00:40:27;;;;;;;9.73;4.50;;;5.40;76.60;;;;;;5010877;28;20038;-65
2021/05/07 00:42:53;;;;;;;12.03;4.70;;;5.40;76.70;;;;;;5009420;28;20490;-64
2021/05/07 00:45:20;;;;;;;12.53;4.20;;;5.50;76.80;;;;;;5026218;28;20041;-64
2021/05/07 00:47:58;;;;;;;10.80;4.57;;;5.50;76.80;;;;;;5009414;28;20042;-64
2021/05/07 00:50:29;;;;;;;12.03;4.30;;;5.50;77.00;;;;;;5011173;28;20415;-64
2021/05/07 00:52:55;;;;;;;;;;;5.60;77.00;;;;;;5009204;28;20503;-64
2021/05/07 00:55:21;;;;;;;9.53;4.37;;;5.60;77.00;;;;;;5026452;28;19910;-64
2021/05/07 00:57:48;;;;;;;9.60;4.10;;;5.60;77.40;;;;;;5013163;28;20115;-64
2021/05/07 01:00:14;;;;;;;10.27;3.90;;;5.60;76.90;;;;;;5014532;28;20038;-64
2021/05/07 01:02:40;;;;;;;11.47;4.30;;;5.60;76.90;;;;;;5013858;28;20482;-64
2021/05/07 01:05:08;;;;;;;10.07;4.17;;;5.70;77.00;;;;;;5013754;28;20053;-64
2021/05/07 01:07:35;;;;;;;12.30;4.00;;;5.70;77.10;;;;;;5014509;28;20048;-64
2021/05/07 01:10:01;;;;;;;11.60;4.03;;;5.70;77.10;;;;;;5013589;28;20117;-66
2021/05/07 01:12:29;;;;;;;8.57;3.93;;;5.70;77.10;;;;;;5013196;28;20038;-64
2021/05/07 01:15:05;;;;;;;7.93;3.80;;;5.70;77.20;;;;;;5013198;28;20034;-64
2021/05/07 01:17:32;;;;;;;11.70;3.97;;;5.70;77.30;;;;;;5013650;28;20033;-64
2021/05/07 01:20:09;;;;;;;8.30;3.70;;;5.70;77.20;;;;;;5013623;28;20064;-64
2021/05/07 01:22:37;;;;;;;10.00;3.67;;;5.70;77.30;;;;;;5013188;28;20109;-64
2021/05/07 01:25:04;;;;;;;8.67;3.63;;;5.70;77.20;;;;;;5012631;28;20034;-64
2021/05/07 01:27:35;;;;;;;10.87;3.70;;;5.60;77.20;;;;;;5029753;28;20037;-64
2021/05/07 01:30:06;;;;;;;9.88;3.78;;;5.60;77.20;;;;;;5014652;28;20033;-64
2021/05/07 01:32:32;;;;;;;8.02;3.72;;;5.60;77.10;;;;;;5012948;28;20034;-64
2021/05/07 01:34:57;;;;;;;9.90;4.00;;;5.50;77.00;;;;;;5014204;28;20044;-64
2021/05/07 01:37:23;;;;;;;11.33;3.67;;;5.40;77.10;;;;;;5029859;28;20034;-64
2021/05/07 01:39:49;;;;;;;9.93;4.00;;;5.40;77.40;;;;;;5013815;28;20030;-64
2021/05/07 01:42:15;;;;;;;10.77;3.87;;;5.30;77.50;;;;;;5012994;28;20030;-64
2021/05/07 01:44:41;;;;;;;12.60;4.03;;;5.20;78.30;;;;;;5012230;28;20121;-65
2021/05/07 01:47:07;;;;;;;9.93;3.77;;;5.20;78.10;;;;;;5012106;28;20113;-64
2021/05/07 01:49:32;;;;;;;9.10;3.63;;;5.30;78.30;;;;;;5029183;28;20488;-64
2021/05/07 01:51:58;;;;;;;10.77;4.33;;;5.30;78.50;;;;;;5012184;28;20030;-66
2021/05/07 01:54:24;;;;;;;10.00;4.30;;;5.30;78.70;;;;;;5028132;28;20134;-64
2021/05/07 01:56:49;;;;;;;11.47;3.70;;;5.30;78.70;;;;;;5013757;28;20410;-64
2021/05/07 01:59:15;;;;;;;10.13;3.60;;;5.40;78.80;;;;;;5011972;28;20042;-64
2021/05/07 02:01:41;;;;;;;11.17;3.83;;;5.40;78.80;;;;;;5013770;28;20038;-64
2021/05/07 02:04:07;;;;;;;11.27;3.67;;;5.40;78.90;;;;;;5012641;28;20088;-64
2021/05/07 02:06:40;;;;;;;7.97;3.60;;;5.40;78.90;;;;;;5012224;28;20033;-64
2021/05/07 02:09:06;;;;;;;10.70;3.80;;;5.50;79.10;;;;;;5028795;28;20061;-64
2021/05/07 02:11:31;;;;;;;13.07;4.10;;;5.50;79.10;;;;;;5011598;28;20384;-64
2021/05/07 02:13:57;;;;;;;8.90;3.60;;;5.50;79.20;;;;;;5011247;28;20034;-64
2021/05/07 02:16:23;;;;;;;9.60;4.10;;;5.60;79.10;;;;;;5012989;28;20034;-63
2021/05/07 02:18:50;;;;;;;12.50;4.13;;;5.60;79.20;;;;;;4995852;28;20034;-64
2021/05/07 02:21:16;;;;;;;8.63;3.87;;;5.60;79.20;;;;;;5011711;28;20033;-64
2021/05/07 02:23:42;;;;;;;12.07;3.93;;;5.60;79.20;;;;;;5027458;28;20041;-65
2021/05/07 02:26:08;;;;;;;11.23;4.20;;;5.70;79.30;;;;;;5028429;28;20080;-64
2021/05/07 02:28:40;;;;;;;10.97;3.70;;;5.70;79.30;;;;;;5012286;28;20033;-64
2021/05/07 02:31:08;;;;;;;8.63;3.70;;;5.70;79.40;;;;;;5013160;28;20041;-64
2021/05/07 02:33:38;;;;;;;8.33;3.47;;;5.70;79.50;;;;;;5012414;28;20037;-64
2021/05/07 02:36:05;;;;;;;9.53;3.40;;;5.70;79.50;;;;;;5011408;28;20045;-64
2021/05/07 02:38:31;;;;;;;10.60;3.50;;;5.70;79.60;;;;;;5011725;28;20042;-64
2021/05/07 02:40:56;;;;;;;10.20;3.17;;;5.70;79.60;;;;;;5011080;28;20088;-64
2021/05/07 02:43:22;;;;;;;10.87;3.27;;;5.70;79.50;;;;;;5011241;28;20042;-64
2021/05/07 02:45:48;;;;;;;8.63;3.30;;;5.70;79.70;;;;;;5011740;28;20046;-64
2021/05/07 02:48:14;;;;;;;10.60;3.20;;;5.70;79.60;;;;;;5027779;28;20038;-64
2021/05/07 02:50:39;;;;;;;11.70;3.47;;;5.70;79.80;;;;;;5027922;28;20057;-64
2021/05/07 02:53:06;;;;;;;8.17;3.30;;;5.80;79.70;;;;;;5011088;28;20038;-64
2021/05/07 02:55:31;;;;;;;12.80;3.20;;;5.70;79.50;;;;;;5012385;28;20037;-64
2021/05/07 02:57:59;;;;;;;8.23;3.30;;;5.70;79.40;;;;;;5012668;28;20025;-64
2021/05/07 03:00:25;;;;;;;11.67;3.70;;;5.70;79.30;;;;;;5010957;28;20510;-64
2021/05/07 03:02:50;;;;;;;9.00;3.50;;;5.70;79.20;;;;;;5012267;28;20124;-64
2021/05/07 03:05:17;;;;;;;12.87;3.47;;;5.80;79.40;;;;;;5010986;28;20038;-64
2021/05/07 03:07:42;;;;;;;9.53;3.57;;;5.70;79.30;;;;;;5012181;28;20565;-64
2021/05/07 03:10:09;;;;;;;8.47;3.00;;;5.80;79.30;;;;;;5011035;28;20292;-64
2021/05/07 03:12:34;;;;;;;11.13;3.50;;;5.80;79.40;;;;;;5011706;28;20038;-64
2021/05/07 03:15:00;;;;;;;8.87;3.10;;;5.90;79.30;;;;;;5011588;28;20030;-64
2021/05/07 03:17:26;;;;;;;9.23;3.10;;;5.90;79.30;;;;;;5012345;28;20038;-64
2021/05/07 03:19:51;;;;;;;9.47;3.53;;;5.90;79.20;;;;;;5011019;28;20049;-64
2021/05/07 03:22:17;;;;;;;10.97;2.90;;;6.00;79.20;;;;;;5012156;28;20034;-64
2021/05/07 03:24:43;;;;;;;8.43;3.13;;;6.00;79.80;;;;;;5011673;28;20429;-64
2021/05/07 03:27:08;;;;;;;7.90;2.97;;;6.00;79.20;;;;;;5011861;28;20034;-64
2021/05/07 03:29:34;;;;;;;10.03;3.30;;;6.00;79.20;;;;;;5011876;28;20045;-64
2021/05/07 03:32:00;;;;;;;8.23;3.00;;;6.00;79.20;;;;;;5011517;28;20030;-64
2021/05/07 03:34:25;;;;;;;10.20;3.07;;;6.00;79.10;;;;;;5011160;28;20100;-64
2021/05/07 03:36:51;;;;;;;9.83;2.90;;;6.00;79.00;;;;;;5012113;28;20033;-64
2021/05/07 03:39:16;;;;;;;8.83;2.93;;;6.00;79.80;;;;;;5011714;28;20042;-64
2021/05/07 03:41:42;;;;;;;10.03;2.90;;;6.00;79.40;;;;;;5011981;28;20062;-64
2021/05/07 03:44:08;;;;;;;11.10;2.90;;;6.00;79.40;;;;;;5010824;28;20506;-64
2021/05/07 03:46:33;;;;;;;9.00;3.10;;;6.10;79.50;;;;;;5011803;28;20542;-64
2021/05/07 03:48:59;;;;;;;10.67;2.63;;;6.10;79.30;;;;;;5011653;28;20042;-64
2021/05/07 03:51:25;;;;;;;9.07;3.00;;;6.10;79.10;;;;;;5011224;28;20069;-64
2021/05/07 03:53:50;;;;;;;10.23;2.90;;;6.00;79.20;;;;;;5011058;28;20125;-64
2021/05/07 03:56:16;;;;;;;6.47;2.73;;;6.00;79.60;;;;;;5011700;28;20034;-64
2021/05/07 03:58:42;;;;;;;10.83;2.80;;;6.00;79.80;;;;;;5011334;28;20454;-64
2021/05/07 04:01:09;;;;;;;8.20;2.90;;;6.10;80.00;;;;;;5010106;28;20056;-64
2021/05/07 04:03:34;;;;;;;9.40;2.67;;;6.10;79.90;;;;;;5010154;28;20045;-64
2021/05/07 04:06:00;;;;;;;8.20;2.97;;;6.20;79.90;;;;;;5011115;28;20037;-64
2021/05/07 04:08:30;;;;;;;9.07;3.17;;;6.10;79.90;;;;;;5026218;28;20394;-64
2021/05/07 04:15:59;;;;;;;7.90;2.70;;;6.10;79.40;;;;;;5011052;28;20061;-64
2021/05/07 04:18:25;;;;;;;8.97;2.47;;;6.00;79.30;;;;;;5009430;28;20490;-66
2021/05/07 04:20:51;;;;;;;7.63;2.63;;;6.00;79.80;;;;;;5010862;28;20080;-64
2021/05/07 04:23:17;;;;;;;6.87;2.40;;;5.90;79.90;;;;;;5010710;28;20034;-64
2021/05/07 04:25:43;;;;;;;5.40;2.10;;;5.90;80.00;;;;;;5011242;28;20049;-67
2021/05/07 04:28:08;;;;;;;8.33;2.40;;;5.90;80.00;;;;;;5011065;28;20443;-64
2021/05/07 04:30:34;;;;;;;7.30;2.60;;;5.90;80.30;;;;;;5012183;28;20045;-64
2021/05/07 04:33:00;;;;;;;9.67;2.53;;;5.90;80.40;;;;;;5013054;28;20033;-66
2021/05/07 04:35:25;;;;;;;8.37;2.80;;;6.00;80.40;;;;;;5015237;28;20041;-64
2021/05/07 04:37:51;;;;;;;6.50;2.50;;;6.00;80.90;;;;;;5015207;28;20121;-64
2021/05/07 04:40:17;;;;;;;9.57;2.70;;;6.00;80.20;;;;;;5013283;28;20109;-64
2021/05/07 04:42:43;;;;;;;7.07;2.70;;;6.00;80.30;;;;;;5014928;28;20129;-64
2021/05/07 04:45:09;;;;;;;7.07;2.63;;;6.10;80.70;;;;;;5013011;28;20049;-64
2021/05/07 04:47:35;;;;;;;7.13;2.80;;;6.20;80.80;;;;;;5014239;28;20038;-67
2021/05/07 04:50:01;;;;;;;7.23;3.17;;;6.20;80.70;;;;;;5014892;28;20026;-64
2021/05/07 04:52:27;;;;;;;14.27;5.67;;;6.30;80.60;;;;;;5014612;28;20048;-63
2021/05/07 04:54:52;;;;;;;10.53;5.33;;;6.30;80.30;;;;;;5014139;28;20104;-64
2021/05/07 04:57:18;;;;;;;9.37;3.87;;;6.30;80.30;;;;;;5014966;28;20093;-64
2021/05/07 04:59:44;;;;;;;8.87;3.90;;;6.30;80.00;;;;;;5014362;28;20037;-64
2021/05/07 05:02:09;;;;;;;9.17;4.50;;;6.20;80.10;;;;;;5014872;28;20438;-63
2021/05/07 05:04:35;;;;;;;8.57;4.70;;;6.20;80.60;;;;;;5014449;28;20553;-63
2021/05/07 05:07:01;;;;;;;9.33;4.73;;;6.20;80.50;;;;;;5014236;28;20038;-63
2021/05/07 05:09:27;;;;;;;9.27;4.50;;;6.30;81.00;;;;;;5013571;28;20108;-64
2021/05/07 05:11:53;;;;;;;10.10;4.33;;;6.30;80.90;;;;;;5012088;28;20073;-63
2021/05/07 05:14:18;;;;;;;10.30;4.20;;;6.30;80.60;;;;;;5013946;28;20068;-63
2021/05/07 05:16:44;;;;;;;8.97;4.17;;;6.40;81.10;;;;;;5014625;28;20056;-63
2021/05/07 05:19:10;;;;;;;9.20;3.77;;;6.40;81.00;;;;;;5012757;28;20490;-63
2021/05/07 05:21:35;;;;;;;8.50;3.23;;;6.40;81.00;;;;;;5013198;28;20132;-63
2021/05/07 05:24:02;;;;;;;8.53;3.20;;;6.40;80.70;;;;;;5013307;28;20046;-64
2021/05/07 05:26:28;;;;;;;11.70;3.30;;;6.30;80.20;;;;;;5013294;28;21304;-64
2021/05/07 05:28:54;;;;;;;7.83;2.87;;;6.20;80.60;;;;;;5014213;28;20117;-63
2021/05/07 05:31:19;;;;;;;7.67;2.70;;;6.20;80.50;;;;;;5012055;28;20041;-64
2021/05/07 05:33:45;;;;;;;6.93;2.50;;;6.20;81.00;;;;;;5013401;28;20044;-63
2021/05/07 05:36:10;;;;;;;6.03;2.23;;;6.20;81.20;;;;;;5012926;28;20034;-63
2021/05/07 05:38:36;;;;;;;6.70;2.00;;;6.20;80.70;;;;;;5013739;28;20683;-64
2021/05/07 05:41:02;;;;;;;6.03;1.70;;;6.20;80.80;;;;;;5027950;28;20037;-63
2021/05/07 05:43:27;;;;;;;5.67;1.80;;;6.20;80.40;;;;;;5012797;28;20077;-64
2021/05/07 05:45:53;;;;;;;5.47;1.80;;;6.20;80.30;;;;;;5013823;28;20372;-63
2021/05/07 05:48:19;;;;;;;5.90;1.97;;;6.20;80.50;;;;;;5012828;28;20487;-63
2021/05/07 05:50:50;;;;;;;3.97;1.70;;;6.20;81.00;;;;;;5013865;28;20121;-63
2021/05/07 05:53:16;;;;;;;4.13;1.60;;;6.30;81.30;;;;;;5013328;28;20451;-64
2021/05/07 05:55:42;;;;;;;5.37;1.77;;;6.30;80.40;;;;;;5013649;28;20091;-64
2021/05/07 05:58:08;;;;;;;5.77;1.47;;;6.40;80.50;;;;;;5013492;28;20058;-64
2021/05/07 06:00:35;;;;;;;5.23;1.40;;;6.40;80.70;;;;;;5029079;28;20038;-63
2021/05/07 06:03:01;;;;;;;4.77;1.50;;;6.60;80.50;;;;;;5012843;28;20038;-63
2021/05/07 06:05:27;;;;;;;4.97;1.30;;;6.60;80.30;;;;;;5013037;28;20513;-65
2021/05/07 06:07:52;;;;;;;7.73;1.50;;;6.70;80.10;;;;;;5011166;28;20096;-64
2021/05/07 06:10:19;;;;;;;5.53;1.43;;;6.90;79.50;;;;;;5026983;28;20046;-64
2021/05/07 06:12:46;;;;;;;4.47;1.53;;;6.90;79.40;;;;;;5010508;28;20049;-64
2021/05/07 06:15:13;;;;;;;4.37;1.50;;;6.90;78.70;;;;;;5011598;28;20398;-64
2021/05/07 06:17:40;;;;;;;5.70;1.70;;;6.90;78.80;;;;;;5011856;28;20061;-64
2021/05/07 06:20:08;;;;;;;6.43;1.53;;;7.00;79.30;;;;;;5011629;28;20033;-64
2021/05/07 06:22:37;;;;;;;5.40;1.90;;;7.20;79.80;;;;;;5009829;28;20446;-64
2021/05/07 06:25:14;;;;;;;4.40;1.80;;;7.40;79.80;;;;;;5009876;28;20053;-64
2021/05/07 06:27:41;;;;;;;4.60;1.67;;;7.70;79.30;;;;;;5010183;28;20034;-63
2021/05/07 06:30:12;;;;;;;7.00;2.53;;;8.10;80.30;;;;;;5018825;28;20036;-64
2021/05/07 06:32:38;;;;;;;3.97;1.47;;;8.70;81.00;;;;;;5029551;28;20343;-64
2021/05/07 06:35:08;;;;;;;4.57;1.53;;;9.70;82.80;;;;;;5029362;28;20069;-64
2021/05/07 06:37:33;;;;;;;3.83;1.30;;;10.60;79.20;;;;;;5031532;28;20117;-64
2021/05/07 06:40:00;;;;;;;4.53;1.55;;;11.10;76.90;;;;;;5029445;28;20339;-65
2021/05/07 06:42:26;;;;;;;3.92;1.30;;;11.40;75.30;;;;;;5031248;28;20045;-63
2021/05/07 06:44:52;;;;;;;4.10;1.38;;;11.70;74.90;;;;;;5030130;28;20440;-63
2021/05/07 06:47:21;;;;;;;3.65;1.30;;;11.90;72.70;;;;;;5030034;28;20030;-64
2021/05/07 06:49:47;;;;;;;3.90;1.30;;;13.20;80.20;;;;;;5031140;28;20048;-64
2021/05/07 06:52:13;;;;;;;3.90;1.30;;;15.40;80.30;;;;;;5030395;28;20026;-63
2021/05/07 06:54:38;;;;;;;3.28;1.20;;;15.90;69.10;;;;;;5029471;28;20053;-63
2021/05/07 06:57:04;;;;;;;5.15;1.42;;;15.40;64.10;;;;;;5031000;28;20042;-63
2021/05/07 06:59:30;;;;;;;5.15;1.60;;;14.50;62.10;;;;;;5020560;28;20041;-63
2021/05/07 07:01:59;;;;;;;3.35;1.50;;;13.50;60.20;;;;;;5040562;28;20452;-63
2021/05/07 07:04:26;;;;;;;6.22;1.80;;;12.50;61.30;;;;;;5042021;28;20046;-63
2021/05/07 07:06:52;;;;;;;5.63;1.52;;;12.30;65.70;;;;;;5043545;28;20029;-63
2021/05/07 07:09:18;;;;;;;3.08;1.30;;;13.00;66.50;;;;;;5043734;28;20060;-63
2021/05/07 07:11:44;;;;;;;4.88;1.40;;;13.20;63.70;;;;;;5042878;28;20068;-63
2021/05/07 07:14:10;;;;;;;4.90;1.80;;;13.50;64.80;;;;;;5042508;28;20051;-63
2021/05/07 07:16:35;;;;;;;3.65;1.45;;;14.10;63.70;;;;;;5039393;28;20120;-63
2021/05/07 07:19:02;;;;;;;4.05;1.35;;;14.70;61.70;;;;;;5039545;28;20038;-63
2021/05/07 07:21:28;;;;;;;5.38;1.40;;;15.20;61.20;;;;;;5040024;28;20091;-63
2021/05/07 07:23:54;;;;;;;3.78;1.27;;;16.00;60.70;;;;;;5040465;28;20119;-63
2021/05/07 07:26:20;;;;;;;4.65;1.50;;;16.90;61.00;;;;;;5043057;28;20036;-63
2021/05/07 07:28:48;;;;;;;4.72;1.30;;;18.00;58.40;;;;;;5038993;28;20492;-64
2021/05/07 07:31:14;;;;;;;4.10;1.33;;;19.10;57.00;;;;;;5039421;28;20048;-63
2021/05/07 07:33:40;;;;;;;2.75;1.20;;;20.10;53.40;;;;;;5038424;28;20045;-63
2021/05/07 07:36:07;;;;;;;3.88;1.30;;;20.60;53.00;;;;;;5040036;28;20056;-63
2021/05/07 07:38:33;;;;;;;4.50;1.30;;;20.20;47.40;;;;;;5041049;28;20460;-62
2021/05/07 07:40:59;;;;;;;3.88;1.17;;;18.80;45.60;;;;;;5023757;28;20037;-61
2021/05/07 07:43:25;;;;;;;5.28;1.40;;;18.10;47.80;;;;;;5037074;28;20324;-62
2021/05/07 07:45:51;;;;;;;3.85;1.33;;;17.10;46.70;;;;;;5039355;28;20033;-62
2021/05/07 07:48:17;;;;;;;3.67;1.10;;;15.90;47.10;;;;;;5039820;28;20045;-62
2021/05/07 07:50:44;;;;;;;3.17;1.00;;;14.90;47.70;;;;;;5042645;28;20040;-69
2021/05/07 07:53:10;;;;;;;4.75;1.20;;;14.00;49.20;;;;;;5042019;28;20045;-69
2021/05/07 07:55:36;;;;;;;3.03;1.10;;;13.50;50.40;;;;;;5042298;28;20449;-69
2021/05/07 07:58:03;;;;;;;4.00;1.30;;;13.30;52.40;;;;;;5041218;28;20048;-72
2021/05/07 08:00:29;;;;;;;4.63;0.95;;;13.80;53.80;;;;;;5040981;28;20044;-68
2021/05/07 08:02:55;;;;;;;5.03;1.40;;;13.90;52.90;;;;;;5038607;28;20026;-69
2021/05/07 08:05:22;;;;;;;3.90;1.10;;;14.20;52.80;;;;;;5038592;28;20065;-69
2021/05/07 08:07:48;;;;;;;3.63;0.90;;;14.20;51.40;;;;;;5040348;28;20021;-69
2021/05/07 08:10:16;;;;;;;3.22;1.00;;;14.00;52.10;;;;;;5041064;28;20033;-70
2021/05/07 08:12:43;;;;;;;2.90;0.90;;;14.90;54.70;;;;;;5039851;28;20371;-68
2021/05/07 08:15:09;;;;;;;2.85;0.80;;;17.10;56.70;;;;;;5038398;28;20038;-70
2021/05/07 08:17:35;;;;;;;5.18;1.85;;;19.40;54.80;;;;;;5037101;28;20137;-62
2021/05/07 08:20:03;;;;;;;3.10;1.05;;;21.30;50.40;;;;;;5041486;28;20144;-62
2021/05/07 08:22:29;;;;;;;4.47;1.13;;;20.90;45.00;;;;;;5042034;28;20045;-62
2021/05/07 08:24:55;;;;;;;3.97;1.20;;;19.60;42.30;;;;;;5039956;28;20500;-61
2021/05/07 08:27:21;;;;;;;2.63;1.05;;;18.00;43.20;;;;;;5038540;28;20125;-62
2021/05/07 08:29:47;;;;;;;3.15;0.90;;;17.60;46.70;;;;;;5038645;28;20057;-61
2021/05/07 08:32:14;;;;;;;3.28;1.00;;;19.10;51.10;;;;;;5039775;28;20037;-62
2021/05/07 08:34:42;;;;;;;2.95;1.02;;;21.40;49.60;;;;;;5040020;28;20041;-62
2021/05/07 08:37:09;;;;;;;3.70;0.82;;;23.70;46.50;;;;;;5039134;28;20076;-63
2021/05/07 08:39:35;;;;;;;2.88;0.88;;;26.00;43.80;;;;;;5039228;28;20144;-63
2021/05/07 08:42:03;;;;;;;2.33;0.80;;;27.70;40.20;;;;;;5038436;28;20389;-62
2021/05/07 08:44:29;;;;;;;1.85;0.70;;;28.30;34.90;;;;;;5039608;28;20045;-62
2021/05/07 08:46:56;;;;;;;3.10;0.93;;;27.30;32.50;;;;;;5041505;28;20044;-62
2021/05/07 08:49:23;;;;;;;3.60;0.90;;;27.10;32.90;;;;;;5041536;28;20048;-63
2021/05/07 08:51:49;;;;;;;2.65;0.88;;;27.40;32.10;;;;;;5023823;28;20119;-62
2021/05/07 08:54:15;;;;;;;3.03;0.80;;;27.10;30.00;;;;;;5031642;28;20183;-63
2021/05/07 08:56:44;;;;;;;4.03;1.08;;;27.40;31.30;;;;;;5048328;28;20037;-62
2021/05/07 08:59:10;;;;;;;3.35;0.90;;;27.40;29.50;;;;;;5050102;28;20079;-61
2021/05/07 09:01:43;;;;;;;2.42;0.80;;;26.50;29.00;;;;;;5050354;28;20493;-62
2021/05/07 09:04:17;;;;;;;1.75;0.80;;;25.80;29.10;;;;;;5041038;28;20036;-63
2021/05/07 09:06:49;;;;;;;2.67;0.70;;;26.30;30.00;;;;;;5042237;28;20041;-62
2021/05/07 09:09:17;;;;;;;2.15;0.80;;;27.00;29.10;;;;;;5042304;28;20036;-63
2021/05/07 09:11:43;;;;;;;1.88;0.80;;;27.90;29.70;;;;;;5041533;28;20127;-63
2021/05/07 09:14:10;;;;;;;3.65;1.20;;;29.60;29.90;;;;;;5039635;28;20033;-63
2021/05/07 09:16:36;;;;;;;2.45;0.90;;;30.70;28.50;;;;;;5038929;28;20037;-63
2021/05/07 09:19:02;;;;;;;1.77;0.80;;;31.10;27.40;;;;;;5041816;28;20037;-63
2021/05/07 09:21:28;;;;;;;2.28;0.77;;;30.80;26.50;;;;;;5044780;28;20573;-62
2021/05/07 09:23:54;;;;;;;3.97;1.10;;;29.80;26.00;;;;;;5034669;28;20124;-62
2021/05/07 09:26:21;;;;;;;2.20;0.77;;;28.50;26.00;;;;;;5042432;28;20037;-64
2021/05/07 09:29:02;;;;;;;4.15;1.08;;;27.40;26.60;;;;;;5041805;28;20034;-62
2021/05/07 09:31:28;;;;;;;3.42;1.20;;;25.80;26.30;;;;;;5026337;28;20092;-62
2021/05/07 09:33:54;;;;;;;3.40;0.90;;;23.70;26.90;;;;;;5042812;28;20040;-61
2021/05/07 09:36:26;;;;;;;1.65;0.90;;;21.60;28.10;;;;;;5044547;28;20132;-62
2021/05/07 09:38:52;;;;;;;2.55;0.85;;;19.70;29.30;;;;;;5015169;28;20099;-62
2021/05/07 09:41:19;;;;;;;4.53;0.82;;;17.80;30.50;;;;;;5031924;28;20036;-62
2021/05/07 09:43:46;;;;;;;2.15;0.85;;;16.10;32.50;;;;;;5041461;28;20053;-61
2021/05/07 09:46:12;;;;;;;2.25;0.88;;;14.70;34.60;;;;;;5044819;28;20474;-62
2021/05/07 09:48:41;;;;;;;4.35;1.10;;;13.70;36.60;;;;;;5045201;28;20123;-65
2021/05/07 09:51:08;;;;;;;2.63;0.90;;;12.90;38.50;;;;;;5043030;28;20133;-64
2021/05/07 09:53:36;;;;;;;2.17;0.82;;;12.40;40.00;;;;;;5044453;28;20053;-65
2021/05/07 09:56:17;;;;;;;2.10;0.80;;;12.00;41.20;;;;;;5042302;28;20483;-65
2021/05/07 09:58:43;;;;;;;4.78;1.20;;;11.80;42.40;;;;;;5040593;28;20042;-65
2021/05/07 10:01:10;;;;;;;6.90;2.30;;;11.60;43.10;;;;;;5041570;28;20038;-65
2021/05/07 10:03:36;;;;;;;5.97;1.67;;;11.60;44.00;;;;;;5043267;28;20029;-65
2021/05/07 10:06:03;;;;;;;5.03;1.38;;;11.50;44.60;;;;;;5043777;28;20045;-65
2021/05/07 10:08:31;;;;;;;3.33;1.17;;;11.70;46.40;;;;;;5041874;28;20387;-66
2021/05/07 10:10:58;;;;;;;3.53;1.35;;;14.10;49.80;;;;;;5040791;28;20112;-66
2021/05/07 10:13:29;;;;;;;1.80;1.00;;;18.70;48.70;;;;;;5040513;28;20060;-67
2021/05/07 10:16:04;;;;;;;5.60;1.17;;;23.40;43.60;;;;;;5044219;28;20044;-67
2021/05/07 10:18:32;;;;;;;3.13;1.10;;;26.90;38.30;;;;;;5042307;28;20037;-69
2021/05/07 10:21:06;;;;;;;3.88;1.00;;;29.60;35.50;;;;;;5040551;28;20402;-69
2021/05/07 10:23:34;;;;;;;3.90;1.20;;;30.70;31.50;;;;;;5040034;28;20042;-66
2021/05/07 10:26:09;;;;;;;5.45;1.30;;;28.70;28.20;;;;;;5043860;28;20033;-65
2021/05/07 10:28:46;;;;;;;3.90;1.10;;;25.50;27.50;;;;;;5041485;28;20059;-64
2021/05/07 10:31:13;;;;;;;4.72;1.20;;;21.70;29.10;;;;;;5040007;28;20029;-64
2021/05/07 10:33:41;;;;;;;4.00;1.40;;;18.90;31.10;;;;;;5038496;28;20493;-64
2021/05/07 10:36:08;;;;;;;3.55;1.30;;;16.80;33.70;;;;;;5044236;28;20203;-65
2021/05/07 10:38:33;;;;;;;3.20;1.27;;;15.20;36.00;;;;;;5043059;28;20037;-65
2021/05/07 10:41:07;;;;;;;2.92;1.35;;;14.20;37.90;;;;;;5023784;28;20060;-64
2021/05/07 10:43:42;;;;;;;2.50;1.10;;;13.40;39.70;;;;;;5040080;28;20045;-64
2021/05/07 10:46:20;;;;;;;2.97;1.10;;;13.00;41.60;;;;;;5016059;28;20063;-64
2021/05/07 10:48:53;;;;;;;2.83;1.15;;;13.00;42.80;;;;;;5043631;28;20033;-65
2021/05/07 10:51:20;;;;;;;3.08;0.93;;;13.10;43.40;;;;;;5040347;28;20026;-65
2021/05/07 10:53:46;;;;;;;2.28;0.90;;;13.90;44.60;;;;;;5039708;28;20625;-65
2021/05/07 10:56:21;;;;;;;4.53;0.80;;;15.20;44.40;;;;;;5040290;28;20057;-65
2021/05/07 10:58:48;;;;;;;4.05;1.02;;;16.60;42.60;;;;;;5041834;28;20039;-64
2021/05/07 11:01:28;;;;;;;2.60;0.80;;;17.80;41.10;;;;;;5042031;28;20035;-65
2021/05/07 11:04:05;;;;;;;4.32;1.17;;;19.30;38.30;;;;;;5036750;28;20422;-65
2021/05/07 11:07:02;;;;;;;2.58;0.80;;;20.30;37.90;;;;;;5039702;28;20133;-66
2021/05/07 11:09:28;;;;;;;2.47;0.80;;;22.50;35.70;;;;;;5042163;28;20037;-66
2021/05/07 11:12:02;;;;;;;3.17;0.80;;;24.30;34.50;;;;;;5038709;28;20048;-66
2021/05/07 11:14:29;;;;;;;1.83;0.65;;;24.00;30.90;;;;;;5038646;28;20041;-65
2021/05/07 11:16:55;;;;;;;1.83;0.68;;;23.30;30.00;;;;;;5040657;28;20033;-66
2021/05/07 11:19:28;;;;;;;1.85;0.80;;;23.70;30.00;;;;;;5042311;28;20155;-66
2021/05/07 11:21:56;;;;;;;2.60;0.70;;;24.60;29.60;;;;;;5039179;28;20041;-66
2021/05/07 11:24:29;;;;;;;1.83;0.80;;;25.40;28.60;;;;;;5037219;28;20064;-68
2021/05/07 11:26:56;;;;;;;3.08;0.90;;;26.90;28.50;;;;;;5040931;28;20045;-67
2021/05/07 11:29:32;;;;;;;2.33;0.82;;;28.80;28.30;;;;;;5041952;28;20044;-68
2021/05/07 11:32:16;;;;;;;1.70;0.80;;;28.80;26.50;;;;;;5039909;28;20494;-66
2021/05/07 11:34:48;;;;;;;2.78;0.73;;;29.20;25.80;;;;;;5039293;28;20050;-66
2021/05/07 11:37:14;;;;;;;3.28;1.00;;;27.40;24.50;;;;;;5041579;28;20056;-65
2021/05/07 11:39:40;;;;;;;3.13;0.82;;;25.10;24.20;;;;;;5042134;28;20509;-65
2021/05/07 11:42:06;;;;;;;2.03;0.82;;;22.60;24.90;;;;;;5041344;28;20401;-64
2021/05/07 11:44:32;;;;;;;2.25;1.13;;;20.40;26.10;;;;;;5039204;28;20033;-64
2021/05/07 11:47:05;;;;;;;3.33;1.27;;;18.50;27.70;;;;;;5038157;28;20029;-64
2021/05/07 11:49:36;;;;;;;4.05;1.08;;;16.80;29.20;;;;;;5042422;28;20041;-63
2021/05/07 11:52:02;;;;;;;2.95;1.10;;;15.50;30.90;;;;;;5043271;28;20390;-64
2021/05/07 11:54:42;;;;;;;3.45;1.00;;;14.70;32.60;;;;;;5038311;28;20513;-64
2021/05/07 11:57:09;;;;;;;3.42;1.17;;;14.20;34.40;;;;;;5039649;28;20071;-64
2021/05/07 11:59:39;;;;;;;4.47;1.17;;;14.10;36.10;;;;;;5041178;28;20033;-67
2021/05/07 12:02:06;;;;;;;4.88;1.23;;;14.30;36.60;;;;;;5043092;28;20055;-64
2021/05/07 12:04:53;;;;;;;3.47;1.15;;;14.40;36.50;;;;;;5015257;28;20034;-64
2021/05/07 12:07:33;;;;;;;4.88;1.30;;;14.30;37.10;;;;;;5050846;28;20037;-64
2021/05/07 12:10:00;;;;;;;4.35;1.25;;;14.00;36.90;;;;;;5052787;28;20045;-64
2021/05/07 12:12:28;;;;;;;4.40;1.20;;;13.70;37.80;;;;;;5031735;28;20025;-64
2021/05/07 12:15:11;;;;;;;4.18;1.20;;;13.50;38.70;;;;;;5048842;28;20055;-64
2021/05/07 12:17:47;;;;;;;4.22;1.10;;;13.50;39.60;;;;;;5050156;28;20094;-64
2021/05/07 12:20:24;;;;;;;5.72;1.50;;;13.50;39.60;;;;;;5050230;28;20558;-64
2021/05/07 12:22:53;;;;;;;4.65;1.20;;;13.40;40.00;;;;;;5048565;28;20123;-65
2021/05/07 12:25:22;;;;;;;5.22;1.55;;;13.20;40.60;;;;;;5049409;28;20052;-65
2021/05/07 12:27:49;;;;;;;5.20;1.15;;;13.20;41.60;;;;;;5048208;28;20037;-64
2021/05/07 12:30:18;;;;;;;5.28;1.30;;;13.50;42.20;;;;;;5050005;28;20029;-65
2021/05/07 12:33:03;;;;;;;3.30;1.10;;;13.70;41.90;;;;;;5049815;28;20037;-65
2021/05/07 12:35:36;;;;;;;4.60;1.13;;;13.60;41.00;;;;;;5050417;28;20128;-63
2021/05/07 12:38:22;;;;;;;4.45;1.17;;;13.30;41.40;;;;;;5048827;28;20512;-64
2021/05/07 12:40:48;;;;;;;4.05;1.23;;;13.60;42.50;;;;;;5048554;28;20497;-63
2021/05/07 12:43:14;;;;;;;4.38;1.50;;;13.90;42.30;;;;;;5048277;28;20025;-64
2021/05/07 12:45:43;;;;;;;4.47;1.20;;;14.20;42.10;;;;;;5030943;28;20036;-64
2021/05/07 12:48:09;;;;;;;4.63;1.08;;;14.30;41.40;;;;;;5048189;28;20107;-63
2021/05/07 12:50:35;;;;;;;5.55;1.33;;;14.30;41.50;;;;;;5050344;28;20029;-63
2021/05/07 12:53:01;;;;;;;5.05;1.67;;;14.10;41.60;;;;;;5019273;28;20039;-63
2021/05/07 12:55:27;;;;;;;4.28;1.20;;;13.90;41.90;;;;;;5054397;28;20048;-63
2021/05/07 12:57:52;;;;;;;3.20;1.10;;;13.80;41.60;;;;;;5054716;28;20033;-63